Time;durP1;ratioP1;P1;durP2;ratioP2;P2;SDS_P1;SDS_P2;PMS_P1;PMS_P2;Temp;Humidity;BMP_temperature;BMP_pressure;BME280_temperature;BME280_humidity;BME280_pressure;Samples;Min_cycle;Max_cycle;Signal;HPM_P1;HPM_P2
2022/05/03 00:00:27;;;;;;;;;;;;;;;7.90;100.00;99527.64;1754110;82;20402;-72
2022/05/03 00:03:19;;;;;;;;;;;;;;;7.87;100.00;99517.19;1753321;82;20109;-73
2022/05/03 00:05:59;;;;;;;;;;;;;;;7.84;100.00;99504.06;1753004;82;20393;-72
2022/05/03 00:08:44;;;;;;;;;;;;;;;7.80;100.00;99500.86;1753477;82;20117;-73
2022/05/03 00:11:30;;;;;;;;;;;;;;;7.77;100.00;99498.49;1753115;82;20116;-73
2022/05/03 00:14:17;;;;;;;;;;;;;;;7.71;100.00;99493.28;1753553;81;20104;-72
2022/05/03 00:16:44;;;;;;;;;;;;;;;7.62;100.00;99486.20;1752362;82;20105;-72
2022/05/03 00:19:11;;;;;;;;;;;;;;;7.55;100.00;99483.84;1750562;82;20124;-71
2022/05/03 00:21:38;;;;;;;;;;;;;;;7.50;100.00;99476.25;1750434;82;20113;-72
2022/05/03 00:24:06;;;;;;;;;;;;;;;7.48;100.00;99469.36;1750478;81;20196;-72
2022/05/03 00:26:33;;;;;;;;;;;;;;;7.47;100.00;99460.47;1751184;82;20406;-72
2022/05/03 00:28:59;;;;;;;;;;;;;;;7.44;100.00;99448.68;1751835;81;20105;-73
2022/05/03 00:31:27;;;;;;;;;;;;;;;7.44;100.00;99438.41;1750947;81;20105;-71
2022/05/03 00:33:53;;;;;;;;;;;;;;;7.41;100.00;99432.35;1750314;81;20421;-72
2022/05/03 00:36:21;;;;;;;;;;;;;;;7.38;100.00;99430.02;1748799;81;20107;-72
2022/05/03 00:38:48;;;;;;;;;;;;;;;7.37;100.00;99418.08;1718558;82;20407;-72
2022/05/03 00:41:35;;;;;;;;;;;;;;;7.35;100.00;99412.02;1746259;82;20098;-72
2022/05/03 00:44:55;;;;;;;;;;;;;;;7.32;100.00;99393.52;1745943;82;20099;-74
2022/05/03 00:46:36;;;;;;;;;;;;;;;7.29;100.00;99383.92;1745909;82;20107;-73
2022/05/03 00:49:25;;;;;;;;;;;;;;;7.25;100.00;99374.52;1746248;82;20115;-72
2022/05/03 00:51:59;;;;;;;;;;;;;;;7.25;100.00;99364.27;1745844;82;20130;-73
2022/05/03 00:54:44;;;;;;;;;;;;;;;7.23;100.00;99355.02;1746389;82;20111;-71
2022/05/03 00:57:44;;;;;;;;;;;;;;;7.23;100.00;99346.44;1746129;82;20119;-70
2022/05/03 01:00:12;;;;;;;;;;;;;;;7.21;100.00;99339.05;1746295;82;20127;-72
2022/05/03 01:03:05;;;;;;;;;;;;;;;7.20;100.00;99337.35;1746242;82;20123;-73
2022/05/03 01:06:11;;;;;;;;;;;;;;;7.17;100.00;99339.05;1746126;82;20130;-72
2022/05/03 01:09:09;;;;;;;;;;;;;;;7.13;100.00;99337.69;1746287;82;20379;-70
2022/05/03 01:11:49;;;;;;;;;;;;;;;7.07;100.00;99341.05;1746174;82;20107;-70
2022/05/03 01:14:25;;;;;;;;;;;;;;;7.03;100.00;99342.39;1746288;82;20098;-72
2022/05/03 01:16:56;;;;;;;;;;;;;;;6.99;100.00;99341.02;1743796;82;20130;-72
2022/05/03 01:19:35;;;;;;;;;;;;;;;6.95;100.00;99340.52;1751436;82;20099;-73
2022/05/03 01:22:09;;;;;;;;;;;;;;;6.90;100.00;99336.64;1751548;82;20106;-72
2022/05/03 01:25:08;;;;;;;;;;;;;;;6.83;100.00;99334.62;1751284;82;20082;-72
2022/05/03 01:27:42;;;;;;;;;;;;;;;6.77;100.00;99334.44;1751453;82;20403;-73
2022/05/03 01:30:09;;;;;;;;;;;;;;;6.70;100.00;99340.13;1751475;82;20118;-73
2022/05/03 01:32:36;;;;;;;;;;;;;;;6.63;100.00;99334.05;1751311;82;20099;-71
2022/05/03 01:35:04;;;;;;;;;;;;;;;6.57;100.00;99329.34;1746208;82;20420;-72
2022/05/03 01:37:43;;;;;;;;;;;;;;;6.53;100.00;99322.59;1744015;82;20150;-72
2022/05/03 01:40:29;;;;;;;;;;;;;;;6.51;100.00;99319.23;1744156;82;20142;-72
2022/05/03 01:43:13;;;;;;;;;;;;;;;6.50;100.00;99315.36;1744036;82;20103;-72
2022/05/03 01:46:18;;;;;;;;;;;;;;;6.47;100.00;99309.83;1743629;82;20127;-72
2022/05/03 01:51:43;;;;;;;;;;;;;;;6.49;100.00;99282.81;1743838;82;20158;-72
2022/05/03 01:54:21;;;;;;;;;;;;;;;6.53;100.00;99275.58;1744356;82;20119;-73
2022/05/03 01:57:03;;;;;;;;;;;;;;;6.53;100.00;99267.52;1742021;82;20412;-72
2022/05/03 01:59:40;;;;;;;;;;;;;;;6.53;100.00;99257.30;1744107;82;20115;-73
2022/05/03 02:02:19;;;;;;;;;;;;;;;6.54;100.00;99252.27;1744131;82;20111;-73
2022/05/03 02:05:02;;;;;;;;;;;;;;;6.55;100.00;99249.42;1744938;82;20384;-74
2022/05/03 02:07:51;;;;;;;;;;;;;;;6.55;100.00;99240.02;1743781;82;20103;-72
2022/05/03 02:10:38;;;;;;;;;;;;;;;6.56;100.00;99243.55;1744176;82;20397;-72
2022/05/03 02:13:28;;;;;;;;;;;;;;;6.56;100.00;99239.52;1743660;81;20111;-69
2022/05/03 02:15:59;;;;;;;;;;;;;;;6.53;100.00;99233.95;1743788;82;20135;-70
2022/05/03 02:18:47;;;;;;;;;;;;;;;6.51;100.00;99232.45;1740520;82;20107;-70
2022/05/03 02:21:28;;;;;;;;;;;;;;;6.49;100.00;99237.98;1740672;82;20122;-70
2022/05/03 02:24:07;;;;;;;;;;;;;;;6.45;100.00;99235.30;1739078;83;20162;-70
2022/05/03 02:26:50;;;;;;;;;;;;;;;6.41;100.00;99233.92;1738936;81;20147;-70
2022/05/03 02:29:23;;;;;;;;;;;;;;;6.37;100.00;99236.61;1738981;83;20107;-71
2022/05/03 02:32:04;;;;;;;;;;;;;;;6.34;100.00;99212.28;1715818;84;20141;-69
2022/05/03 02:34:38;;;;;;;;;;;;;;;6.32;100.00;99211.61;1714837;84;20162;-69
2022/05/03 02:37:13;;;;;;;;;;;;;;;6.28;100.00;99212.92;1720762;83;20168;-70
2022/05/03 02:39:54;;;;;;;;;;;;;;;6.26;100.00;99209.56;1699286;83;20109;-71
2022/05/03 02:42:21;;;;;;;;;;;;;;;6.23;100.00;99208.54;1723209;83;20153;-70
2022/05/03 02:44:48;;;;;;;;;;;;;;;6.24;100.00;99186.07;1722774;83;20109;-70
2022/05/03 02:47:29;;;;;;;;;;;;;;;6.24;100.00;99181.53;1723091;83;20102;-70
2022/05/03 02:50:03;;;;;;;;;;;;;;;6.26;100.00;99178.17;1722831;83;20137;-70
2022/05/03 02:53:05;;;;;;;;;;;;;;;6.29;100.00;99167.63;1722916;83;20117;-68
2022/05/03 02:55:39;;;;;;;;;;;;;;;6.31;100.00;99151.36;1722948;83;20137;-70
2022/05/03 02:58:14;;;;;;;;;;;;;;;6.33;100.00;99152.86;1722882;83;20105;-69
2022/05/03 03:04:03;;;;;;;;;;;;;;;6.34;100.00;99141.61;1723275;83;20417;-70
2022/05/03 03:06:34;;;;;;;;;;;;;;;6.34;100.00;99140.27;1723054;83;20109;-70
2022/05/03 03:09:01;;;;;;;;;;;;;;;6.34;100.00;99140.27;1691176;83;20132;-70
2022/05/03 03:11:38;;;;;;;;;;;;;;;6.35;100.00;99140.10;1722821;83;20098;-71
2022/05/03 03:14:24;;;;;;;;;;;;;;;6.39;100.00;99137.45;1700094;84;20131;-71
2022/05/03 03:17:07;;;;;;;;;;;;;;;6.44;100.00;99134.24;1699711;84;20103;-70
2022/05/03 03:19:47;;;;;;;;;;;;;;;6.50;100.00;99128.22;1700179;84;20479;-69
2022/05/03 03:22:15;;;;;;;;;;;;;;;6.56;100.00;99111.93;1700138;84;20115;-71
2022/05/03 03:24:42;;;;;;;;;;;;;;;6.61;100.00;99113.61;1699962;84;20142;-71
2022/05/03 03:27:10;;;;;;;;;;;;;;;6.65;100.00;99105.55;1699790;84;20460;-71
2022/05/03 03:29:41;;;;;;;;;;;;;;;6.71;100.00;99102.20;1699894;84;20111;-70
2022/05/03 03:32:09;;;;;;;;;;;;;;;6.77;100.00;99097.47;1700161;84;20128;-70
2022/05/03 03:34:39;;;;;;;;;;;;;;;6.86;100.00;99099.65;1699891;84;20127;-70
2022/05/03 03:37:07;;;;;;;;;;;;;;;6.92;100.00;99094.92;1709321;84;20155;-70
2022/05/03 03:39:34;;;;;;;;;;;;;;;6.97;100.00;99087.19;1713706;84;20401;-69
2022/05/03 03:42:01;;;;;;;;;;;;;;;7.05;100.00;99086.35;1713644;84;20133;-69
2022/05/03 03:44:30;;;;;;;;;;;;;;;7.12;100.00;99090.03;1713507;84;20114;-70
2022/05/03 03:46:58;;;;;;;;;;;;;;;7.20;100.00;99078.40;1713395;84;20101;-70
2022/05/03 03:49:25;;;;;;;;;;;;;;;7.28;100.00;99087.80;1713564;84;20109;-69
2022/05/03 03:51:52;;;;;;;;;;;;;;;7.34;100.00;99083.05;1737827;82;20109;-71
2022/05/03 03:54:19;;;;;;;;;;;;;;;7.40;100.00;99086.89;1747534;82;20133;-70
2022/05/03 03:56:47;;;;;;;;;;;;;;;7.46;100.00;99088.08;1747413;82;20107;-70
2022/05/03 03:59:14;;;;;;;;;;;;;;;7.52;100.00;99102.16;1747471;82;20104;-69
2022/05/03 04:01:41;;;;;;;;;;;;;;;7.57;100.00;99106.00;1747612;82;20117;-71
2022/05/03 04:04:08;;;;;;;;;;;;;;;7.64;100.00;99108.00;1747459;82;20128;-70
2022/05/03 04:06:35;;;;;;;;;;;;;;;7.71;100.00;99111.16;1747308;82;20136;-72
2022/05/03 04:09:02;;;;;;;;;;;;;;;7.77;100.00;99122.58;1747612;82;20113;-70
2022/05/03 04:11:29;;;;;;;;;;;;;;;7.85;100.00;99128.41;1747680;82;20105;-70
2022/05/03 04:13:56;;;;;;;;;;;;;;;7.95;100.00;99147.02;1726336;82;20132;-70
2022/05/03 04:16:23;;;;;;;;;;;;;;;8.04;100.00;99153.20;1725738;82;20105;-71
2022/05/03 04:18:50;;;;;;;;;;;;;;;8.11;100.00;99171.68;1749458;81;20137;-69
2022/05/03 04:21:17;;;;;;;;;;;;;;;8.21;100.00;99188.46;1750373;81;20133;-70
2022/05/03 04:23:45;;;;;;;;;;;;;;;8.31;100.00;99199.86;1750115;82;20105;-70
2022/05/03 04:26:12;;;;;;;;;;;;;;;8.43;100.00;99221.03;1750174;82;20131;-72
2022/05/03 04:28:39;;;;;;;;;;;;;;;8.53;100.00;99231.94;1749947;81;20097;-70
2022/05/03 04:31:06;;;;;;;;;;;;;;;8.65;100.00;99253.91;1750101;82;20109;-71
2022/05/03 04:33:34;;;;;;;;;;;;;;;8.79;100.00;99286.52;1749234;82;20105;-70
2022/05/03 04:36:01;;;;;;;;;;;;;;;8.92;100.00;99311.02;1739791;81;20135;-72
2022/05/03 04:38:28;;;;;;;;;;;;;;;9.05;100.00;99342.81;1741191;82;20127;-71
2022/05/03 04:41:01;;;;;;;;;;;;;;;9.17;100.00;99369.71;1767987;81;20133;-70
2022/05/03 04:43:28;;;;;;;;;;;;;;;9.33;100.00;99402.48;1749023;82;20102;-70
2022/05/03 04:45:55;;;;;;;;;;;;;;;9.48;100.00;99446.55;1767860;81;20132;-72
2022/05/03 04:48:22;;;;;;;;;;;;;;;9.64;100.00;99475.81;1748793;82;20123;-71
2022/05/03 04:50:49;;;;;;;;;;;;;;;9.80;100.00;99506.75;1768100;81;20156;-70
2022/05/03 04:53:16;;;;;;;;;;;;;;;9.98;100.00;99533.98;1749062;82;20126;-68
2022/05/03 04:55:43;;;;;;;;;;;;;;;10.14;100.00;99558.16;1768252;81;20101;-71
2022/05/03 04:58:10;;;;;;;;;;;;;;;10.28;100.00;99598.95;1749150;82;20119;-70
2022/05/03 05:00:37;;;;;;;;;;;;;;;10.39;100.00;99622.38;1768001;81;20138;-71
2022/05/03 05:03:04;;;;;;;;;;;;;;;10.54;100.00;99650.81;1749022;82;20107;-71
2022/05/03 05:05:31;;;;;;;;;;;;;;;10.70;100.00;99677.41;1768298;81;20116;-71
2022/05/03 05:08:03;;;;;;;;;;;;;;;10.83;100.00;99705.50;1748456;82;20130;-70
2022/05/03 05:10:32;;;;;;;;;;;;;;;11.02;100.00;99719.56;1767720;81;20141;-70
2022/05/03 05:15:28;;;;;;;;;;;;;;;11.33;100.00;99770.03;1688715;85;20139;-73
2022/05/03 05:17:58;;;;;;;;;;;;;;;11.39;100.00;99799.94;1686105;85;20195;-71
2022/05/03 05:20:26;;;;;;;;;;;;;;;11.45;100.00;99820.02;1682255;85;20105;-73
2022/05/03 05:22:55;;;;;;;;;;;;;;;11.55;100.00;99830.61;1679293;85;20482;-71
2022/05/03 05:25:22;;;;;;;;;;;;;;;11.68;100.00;99846.23;1668982;86;20141;-71
2022/05/03 05:27:49;;;;;;;;;;;;;;;11.82;100.00;99868.44;1668895;84;20114;-70
2022/05/03 05:30:16;;;;;;;;;;;;;;;11.98;100.00;99882.38;1668803;85;20121;-70
2022/05/03 05:32:43;;;;;;;;;;;;;;;12.07;100.00;99909.72;1668992;86;20130;-70
2022/05/03 05:35:12;;;;;;;;;;;;;;;12.19;100.00;99926.91;1691804;84;20140;-70
2022/05/03 05:37:38;;;;;;;;;;;;;;;12.30;100.00;99933.23;1701273;84;20112;-68
2022/05/03 05:40:06;;;;;;;;;;;;;;;12.44;100.00;99950.55;1701676;84;20128;-67
2022/05/03 05:42:33;;;;;;;;;;;;;;;12.64;100.00;99963.04;1700803;84;20138;-68
2022/05/03 05:45:00;;;;;;;;;;;;;;;12.85;100.00;99975.34;1694347;84;20090;-69
2022/05/03 05:47:27;;;;;;;;;;;;;;;13.09;100.00;99988.31;1679173;85;20111;-71
2022/05/03 05:49:54;;;;;;;;;;;;;;;13.32;100.00;100011.30;1680693;85;20163;-71
2022/05/03 05:57:36;;;;;;;;;;;;;;;13.70;100.00;100095.33;1636589;87;20123;-71
2022/05/03 06:00:04;;;;;;;;;;;;;;;13.88;100.00;100103.06;1634823;87;20139;-70
2022/05/03 06:02:32;;;;;;;;;;;;;;;14.10;100.00;100123.52;1632588;87;20427;-69
2022/05/03 06:04:59;;;;;;;;;;;;;;;14.32;100.00;100144.23;1636587;87;20103;-74
2022/05/03 06:07:27;;;;;;;;;;;;;;;14.46;100.00;100162.08;1636017;87;20124;-70
2022/05/03 06:09:55;;;;;;;;;;;;;;;14.60;100.00;100187.05;1635379;87;20170;-72
2022/05/03 06:12:21;;;;;;;;;;;;;;;14.69;100.00;100202.21;1635233;86;20443;-70
2022/05/03 06:14:48;;;;;;;;;;;;;;;14.80;100.00;100221.27;1672016;86;20114;-71
2022/05/03 06:17:15;;;;;;;;;;;;;;;14.84;100.00;100229.88;1672082;84;20433;-68
2022/05/03 06:19:42;;;;;;;;;;;;;;;14.97;100.00;100240.38;1657817;86;20122;-70
2022/05/03 06:22:09;;;;;;;;;;;;;;;15.17;100.00;100242.45;1656407;86;20114;-67
2022/05/03 06:24:38;;;;;;;;;;;;;;;15.38;100.00;100238.85;1655663;86;20415;-69
2022/05/03 06:27:05;;;;;;;;;;;;;;;15.56;100.00;100233.77;1655836;86;20103;-68
2022/05/03 06:29:35;;;;;;;;;;;;;;;15.70;100.00;100242.84;1656041;86;20133;-69
2022/05/03 06:32:02;;;;;;;;;;;;;;;15.78;100.00;100237.81;1654540;86;20158;-71
2022/05/03 06:34:29;;;;;;;;;;;;;;;15.91;100.00;100243.86;1643491;87;20108;-68
2022/05/03 06:36:56;;;;;;;;;;;;;;;15.97;100.00;100244.43;1643261;87;20118;-68
2022/05/03 06:39:23;;;;;;;;;;;;;;;15.98;100.00;100243.90;1649699;87;20110;-69
2022/05/03 06:41:49;;;;;;;;;;;;;;;16.03;100.00;100242.24;1649903;87;20387;-68
2022/05/03 06:44:16;;;;;;;;;;;;;;;16.22;100.00;100235.20;1649804;87;20106;-68
2022/05/03 06:46:44;;;;;;;;;;;;;;;16.37;100.00;100235.58;1649600;87;20154;-68
2022/05/03 06:49:11;;;;;;;;;;;;;;;16.62;100.00;100235.86;1648836;87;20193;-69
2022/05/03 06:51:38;;;;;;;;;;;;;;;16.87;100.00;100225.22;1649961;87;20131;-69
2022/05/03 06:54:05;;;;;;;;;;;;;;;17.10;100.00;100224.83;1649899;87;20415;-73
2022/05/03 06:56:35;;;;;;;;;;;;;;;17.18;100.00;100221.89;1649824;87;20146;-68
2022/05/03 06:59:01;;;;;;;;;;;;;;;17.12;100.00;100222.72;1649754;86;20118;-69
2022/05/03 07:01:28;;;;;;;;;;;;;;;17.22;100.00;100217.68;1700273;84;20130;-69
2022/05/03 07:03:55;;;;;;;;;;;;;;;17.33;100.00;100216.73;1715841;83;20559;-68
2022/05/03 07:06:21;;;;;;;;;;;;;;;17.41;100.00;100215.17;1702054;84;20130;-70
2022/05/03 07:08:48;;;;;;;;;;;;;;;17.46;100.00;100222.20;1695613;84;20181;-69
2022/05/03 07:11:15;;;;;;;;;;;;;;;17.59;100.00;100218.61;1695589;85;20411;-71
2022/05/03 07:13:43;;;;;;;;;;;;;;;17.77;100.00;100209.73;1695524;84;20115;-70
2022/05/03 07:16:09;;;;;;;;;;;;;;;18.09;100.00;100208.51;1695258;84;20111;-68
2022/05/03 07:24:07;;;;;;;;;;;;;;;18.91;100.00;100215.56;1709608;83;20106;-68
2022/05/03 07:26:34;;;;;;;;;;;;;;;18.89;100.00;100207.59;1709089;84;20466;-70
2022/05/03 07:29:01;;;;;;;;;;;;;;;18.94;98.44;100207.73;1708604;84;20165;-68
2022/05/03 07:31:28;;;;;;;;;;;;;;;18.97;97.84;100202.36;1708900;83;20106;-72
2022/05/03 07:33:56;;;;;;;;;;;;;;;19.04;95.75;100203.14;1710151;83;20188;-70
2022/05/03 07:36:23;;;;;;;;;;;;;;;19.12;96.46;100192.42;1715641;84;20111;-66
2022/05/03 07:38:50;;;;;;;;;;;;;;;19.31;97.22;100202.38;1719307;84;20436;-68
2022/05/03 07:41:17;;;;;;;;;;;;;;;19.28;88.55;100194.62;1727487;82;20404;-66
2022/05/03 07:43:44;;;;;;;;;;;;;;;19.19;92.41;100193.20;1718859;84;20159;-68
2022/05/03 07:46:11;;;;;;;;;;;;;;;19.28;93.51;100193.25;1718679;84;20428;-69
2022/05/03 07:48:42;;;;;;;;;;;;;;;19.34;92.38;100198.36;1729630;82;20139;-70
2022/05/03 07:51:13;;;;;;;;;;;;;;;19.35;91.17;100189.05;1742968;82;20192;-72
2022/05/03 07:53:44;;;;;;;;;;;;;;;19.43;92.75;100187.95;1742662;82;20115;-71
2022/05/03 07:56:11;;;;;;;;;;;;;;;19.33;89.08;100182.42;1743544;82;20292;-72
2022/05/03 07:58:38;;;;;;;;;;;;;;;19.27;90.26;100179.23;1742305;82;20147;-71
2022/05/03 08:01:05;;;;;;;;;;;;;;;19.08;88.88;100169.28;1742298;82;20119;-71
2022/05/03 08:03:32;;;;;;;;;;;;;;;19.01;94.21;100166.59;1742054;82;20154;-69
2022/05/03 08:05:59;;;;;;;;;;;;;;;19.11;91.18;100161.45;1741553;82;20107;-70
2022/05/03 08:08:26;;;;;;;;;;;;;;;19.22;90.26;100162.61;1741854;82;20139;-70
2022/05/03 08:10:52;;;;;;;;;;;;;;;19.13;89.17;100151.09;1741999;81;20091;-70
2022/05/03 08:13:19;;;;;;;;;;;;;;;19.26;92.76;100154.23;1742354;82;20428;-71
2022/05/03 08:15:47;;;;;;;;;;;;;;;19.50;88.66;100153.07;1742467;82;20123;-71
2022/05/03 08:18:14;;;;;;;;;;;;;;;19.57;89.59;100157.12;1742276;81;20123;-69
2022/05/03 08:20:41;;;;;;;;;;;;;;;19.89;94.22;100141.38;1753271;82;20091;-70
2022/05/03 08:23:08;;;;;;;;;;;;;;;20.27;94.03;100144.34;1753037;81;20138;-69
2022/05/03 08:25:37;;;;;;;;;;;;;;;20.40;87.40;100137.30;1752941;82;20138;-70
2022/05/03 08:28:04;;;;;;;;;;;;;;;20.04;78.92;100139.58;1753250;81;20459;-69
2022/05/03 08:30:31;;;;;;;;;;;;;;;19.61;85.35;100137.77;1753174;82;20134;-71
2022/05/03 08:32:58;;;;;;;;;;;;;;;19.67;91.02;100140.44;1753468;81;20158;-67
2022/05/03 08:35:25;;;;;;;;;;;;;;;19.81;87.30;100134.81;1723866;82;20138;-70
2022/05/03 08:43:24;;;;;;;;;;;;;;;19.95;83.31;100128.08;1694358;85;20111;-70
2022/05/03 08:45:51;;;;;;;;;;;;;;;20.27;79.64;100120.48;1694270;85;20142;-71
2022/05/03 08:48:21;;;;;;;;;;;;;;;20.35;75.41;100115.20;1694380;85;20115;-70
2022/05/03 08:50:47;;;;;;;;;;;;;;;20.30;70.86;100116.42;1694547;85;20107;-69
2022/05/03 08:53:15;;;;;;;;;;;;;;;20.15;65.96;100123.72;1693365;85;20135;-71
2022/05/03 08:55:42;;;;;;;;;;;;;;;19.95;64.27;100122.59;1694011;85;20182;-69
2022/05/03 08:58:09;;;;;;;;;;;;;;;19.80;67.77;100120.27;1694548;85;20423;-72
2022/05/03 09:00:37;;;;;;;;;;;;;;;19.74;73.44;100119.80;1694293;85;20126;-69
2022/05/03 09:03:04;;;;;;;;;;;;;;;20.00;74.50;100115.88;1693777;85;20170;-69
2022/05/03 09:05:31;;;;;;;;;;;;;;;19.95;67.93;100108.88;1694391;85;20135;-71
2022/05/03 09:10:33;;;;;;;;;;;;;;;19.39;67.72;100108.56;1662635;86;20209;-70
2022/05/03 09:13:22;;;;;;;;;;;;;;;18.81;67.97;100107.00;1663506;86;20494;-70
2022/05/03 09:15:56;;;;;;;;;;;;;;;18.39;71.77;100103.40;1663511;86;20422;-69
2022/05/03 09:18:29;;;;;;;;;;;;;;;18.46;80.84;100104.19;1663875;85;20098;-71
2022/05/03 09:26:21;;;;;;;;;;;;;;;18.92;74.06;100093.95;1550750;92;21719;-71
2022/05/03 09:28:52;;;;;;;;;;;;;;;18.89;75.49;100091.16;1562645;92;20119;-71
2022/05/03 09:31:30;;;;;;;;;;;;;;;18.88;74.41;100095.48;1562340;92;20143;-71
2022/05/03 09:33:58;;;;;;;;;;;;;;;18.84;72.10;100085.50;1566840;90;20509;-71
2022/05/03 09:36:25;;;;;;;;;;;;;;;18.72;77.18;100090.83;1575210;90;20723;-70
2022/05/03 09:38:54;;;;;;;;;;;;;;;18.65;72.33;100085.94;1546304;93;20164;-71
2022/05/03 09:41:21;;;;;;;;;;;;;;;18.49;64.56;100081.02;1558305;92;20306;-69
2022/05/03 09:44:05;;;;;;;;;;;;;;;18.32;65.95;100079.34;1558151;91;20148;-70
2022/05/03 09:46:51;;;;;;;;;;;;;;;18.30;67.74;100078.73;1558226;92;20137;-69
2022/05/03 09:49:20;;;;;;;;;;;;;;;18.23;68.61;100078.77;1559517;92;20186;-68
2022/05/03 09:51:49;;;;;;;;;;;;;;;18.21;67.70;100075.41;1557705;92;20141;-67
2022/05/03 09:54:16;;;;;;;;;;;;;;;18.31;71.08;100068.06;1558173;92;21025;-68
2022/05/03 09:56:46;;;;;;;;;;;;;;;18.43;72.23;100063.56;1557868;92;20454;-69
2022/05/03 09:59:13;;;;;;;;;;;;;;;18.55;72.27;100060.41;1558479;91;20109;-68
2022/05/03 10:01:40;;;;;;;;;;;;;;;18.62;74.71;100057.63;1558440;92;20435;-68
2022/05/03 10:04:07;;;;;;;;;;;;;;;18.87;72.24;100055.44;1558288;92;20173;-68
2022/05/03 10:06:35;;;;;;;;;;;;;;;19.37;69.20;100048.50;1561143;91;20139;-69
2022/05/03 10:09:02;;;;;;;;;;;;;;;20.12;68.10;100041.00;1575913;90;20195;-67
2022/05/03 10:11:30;;;;;;;;;;;;;;;20.93;65.79;100040.85;1576227;90;20163;-69
2022/05/03 10:13:57;;;;;;;;;;;;;;;21.50;59.93;100038.83;1575483;91;20178;-69
2022/05/03 10:22:00;;;;;;;;;;;;;;;21.96;52.03;100030.09;1652803;85;20154;-69
2022/05/03 10:24:27;;;;;;;;;;;;;;;21.85;50.30;100036.50;1709754;84;20102;-68
2022/05/03 10:27:02;;;;;;;;;;;;;;;21.66;47.04;100033.09;1722315;83;20113;-69
2022/05/03 10:29:36;;;;;;;;;;;;;;;21.49;46.92;100028.89;1708280;83;20203;-68
2022/05/03 10:32:07;;;;;;;;;;;;;;;21.21;44.35;100031.00;1706835;84;20113;-69
2022/05/03 10:35:03;;;;;;;;;;;;;;;20.82;43.98;100027.41;1705273;84;20180;-68
2022/05/03 10:37:36;;;;;;;;;;;;;;;20.65;45.84;100026.45;1715261;84;20148;-68
2022/05/03 10:40:10;;;;;;;;;;;;;;;21.06;49.50;100012.27;1718023;84;20137;-68
2022/05/03 10:42:39;;;;;;;;;;;;;;;21.60;45.03;100005.16;1689735;84;20414;-70
2022/05/03 10:45:09;;;;;;;;;;;;;;;21.86;44.36;100009.80;1717801;84;20126;-67
2022/05/03 10:47:49;;;;;;;;;;;;;;;22.08;42.82;100008.02;1717293;84;20121;-67
2022/05/03 10:50:19;;;;;;;;;;;;;;;22.26;42.25;100005.58;1717700;84;20161;-71
2022/05/03 10:52:59;;;;;;;;;;;;;;;22.29;40.81;100005.12;1717347;84;20144;-67
2022/05/03 10:55:32;;;;;;;;;;;;;;;22.33;41.09;100001.32;1718230;84;20093;-70
2022/05/03 10:58:20;;;;;;;;;;;;;;;22.06;40.38;100002.45;1718324;84;20140;-68
2022/05/03 11:01:14;;;;;;;;;;;;;;;22.08;42.48;100004.41;1717910;83;20102;-69
2022/05/03 11:03:51;;;;;;;;;;;;;;;22.19;42.33;99987.83;1717653;84;20133;-67
2022/05/03 11:06:22;;;;;;;;;;;;;;;22.48;42.84;99992.46;1715298;84;20114;-69
2022/05/03 11:11:42;;;;;;;;;;;;;;;22.06;42.41;99984.55;1718007;84;20105;-71
2022/05/03 11:14:21;;;;;;;;;;;;;;;21.89;41.48;99988.13;1717921;84;20121;-70
2022/05/03 11:16:51;;;;;;;;;;;;;;;21.72;42.92;99980.37;1718074;84;20121;-68
2022/05/03 11:19:19;;;;;;;;;;;;;;;21.94;42.96;99981.34;1719734;82;20102;-66
2022/05/03 11:21:47;;;;;;;;;;;;;;;22.03;42.32;99974.89;1693585;85;20101;-69
2022/05/03 11:24:22;;;;;;;;;;;;;;;22.17;40.75;99969.91;1693573;85;20123;-67
2022/05/03 11:26:50;;;;;;;;;;;;;;;22.17;41.87;99975.41;1692938;85;20145;-70
2022/05/03 11:29:17;;;;;;;;;;;;;;;22.21;39.62;99971.06;1692268;85;20159;-68
2022/05/03 11:31:49;;;;;;;;;;;;;;;22.29;40.24;99958.30;1692064;85;20137;-68
2022/05/03 11:34:17;;;;;;;;;;;;;;;22.44;38.79;99950.80;1702640;83;20112;-69
2022/05/03 11:36:49;;;;;;;;;;;;;;;22.19;37.55;99952.03;1725838;83;20117;-70
2022/05/03 11:39:20;;;;;;;;;;;;;;;22.14;39.43;99948.36;1727658;83;20101;-69
2022/05/03 11:41:47;;;;;;;;;;;;;;;22.45;38.89;99946.13;1727241;83;20089;-69
2022/05/03 11:44:14;;;;;;;;;;;;;;;22.89;37.50;99948.41;1728067;83;20101;-69
2022/05/03 11:46:42;;;;;;;;;;;;;;;23.22;37.32;99943.09;1699016;83;20140;-68
2022/05/03 11:49:11;;;;;;;;;;;;;;;23.26;37.22;99927.69;1728264;83;20871;-68
2022/05/03 11:57:23;;;;;;;;;;;;;;;23.01;35.77;99925.42;1608169;89;20396;-71
2022/05/03 11:59:51;;;;;;;;;;;;;;;23.46;34.76;99927.08;1607256;89;20119;-70
2022/05/03 12:02:23;;;;;;;;;;;;;;;23.65;34.25;99924.24;1606322;89;20126;-69
2022/05/03 12:05:15;;;;;;;;;;;;;;;23.53;32.80;99923.56;1605080;89;20154;-71
2022/05/03 12:07:43;;;;;;;;;;;;;;;23.15;32.73;99921.22;1605880;89;20142;-70
2022/05/03 12:10:21;;;;;;;;;;;;;;;22.82;33.80;99918.00;1606197;89;20501;-70
2022/05/03 12:13:10;;;;;;;;;;;;;;;22.73;34.79;99917.60;1605081;89;20146;-72
2022/05/03 12:15:46;;;;;;;;;;;;;;;22.59;35.23;99912.17;1604088;89;20150;-69
2022/05/03 12:18:15;;;;;;;;;;;;;;;22.20;35.32;99907.42;1605825;89;20195;-67
2022/05/03 12:20:59;;;;;;;;;;;;;;;21.54;35.62;99903.00;1604289;89;20111;-70
2022/05/03 12:23:41;;;;;;;;;;;;;;;21.17;36.67;99912.43;1602455;90;20107;-71
2022/05/03 12:28:55;;;;;;;;;;;;;;;21.05;37.58;99899.26;1586692;90;20149;-69
2022/05/03 12:31:23;;;;;;;;;;;;;;;20.76;38.04;99899.22;1591908;90;20183;-70
2022/05/03 12:33:54;;;;;;;;;;;;;;;20.54;37.99;99891.27;1581478;89;20095;-71
2022/05/03 12:36:34;;;;;;;;;;;;;;;20.47;38.36;99888.13;1604003;89;20305;-72
2022/05/03 12:39:15;;;;;;;;;;;;;;;20.72;38.98;99890.34;1604997;89;20159;-70
2022/05/03 12:41:44;;;;;;;;;;;;;;;20.90;38.80;99885.23;1604047;89;20123;-70
2022/05/03 12:44:12;;;;;;;;;;;;;;;21.09;39.39;99890.84;1604972;89;20377;-72
2022/05/03 12:46:42;;;;;;;;;;;;;;;21.27;38.84;99887.62;1598731;89;20138;-70
2022/05/03 12:49:13;;;;;;;;;;;;;;;21.45;38.45;99882.45;1579165;91;20117;-72
2022/05/03 12:51:44;;;;;;;;;;;;;;;21.50;38.95;99879.83;1647028;86;20171;-72
2022/05/03 12:54:11;;;;;;;;;;;;;;;21.41;38.16;99877.98;1698808;84;20130;-70
2022/05/03 12:59:25;;;;;;;;;;;;;;;21.06;38.60;99877.58;1699067;84;20391;-70
2022/05/03 13:01:54;;;;;;;;;;;;;;;20.59;38.02;99878.51;1699238;83;20166;-69
2022/05/03 13:04:20;;;;;;;;;;;;;;;20.30;40.25;99870.70;1699382;84;20127;-72
2022/05/03 13:06:47;;;;;;;;;;;;;;;20.12;40.06;99870.83;1699296;84;20111;-70
2022/05/03 13:09:15;;;;;;;;;;;;;;;20.01;41.31;99878.81;1698781;84;20136;-70
2022/05/03 13:11:42;;;;;;;;;;;;;;;20.03;41.98;99869.80;1698846;84;20175;-70
2022/05/03 13:14:09;;;;;;;;;;;;;;;20.00;42.07;99869.44;1699598;84;20135;-69
2022/05/03 13:16:36;;;;;;;;;;;;;;;19.94;42.02;99868.48;1699485;84;20126;-72
2022/05/03 13:19:03;;;;;;;;;;;;;;;19.71;40.57;99867.34;1699987;84;20403;-72
2022/05/03 13:21:39;;;;;;;;;;;;;;;19.60;41.95;99875.02;1699377;84;20135;-73
2022/05/03 13:24:05;;;;;;;;;;;;;;;;;;1699842;84;20142;-72
2022/05/03 13:26:34;;;;;;;;;;;;;;;19.78;41.29;99867.27;1725601;83;20460;-72
2022/05/03 13:29:02;;;;;;;;;;;;;;;19.85;42.23;99873.48;1674494;85;20148;-71
2022/05/03 13:31:29;;;;;;;;;;;;;;;19.80;42.87;99870.61;1670247;86;20451;-73
2022/05/03 13:33:56;;;;;;;;;;;;;;;19.95;43.66;99867.94;1673110;84;20389;-72
2022/05/03 13:41:55;;;;;;;;;;;;;;;20.42;40.70;99852.30;1682812;85;20388;-69
2022/05/03 13:44:21;;;;;;;;;;;;;;;20.46;43.21;99846.62;1683520;85;20455;-72
2022/05/03 13:46:52;;;;;;;;;;;;;;;20.77;42.76;99854.71;1684420;85;20141;-71
2022/05/03 13:49:19;;;;;;;;;;;;;;;20.94;42.88;99850.67;1684380;85;20159;-71
2022/05/03 13:51:46;;;;;;;;;;;;;;;21.02;39.75;99846.17;1683878;85;20423;-70
2022/05/03 13:54:13;;;;;;;;;;;;;;;20.98;39.78;99843.08;1684254;85;20400;-73
2022/05/03 13:56:40;;;;;;;;;;;;;;;20.93;39.10;99834.73;1684582;85;20364;-74
2022/05/03 13:59:07;;;;;;;;;;;;;;;20.75;39.01;99843.13;1684005;85;20108;-71
2022/05/03 14:01:37;;;;;;;;;;;;;;;20.63;39.34;99841.81;1684234;85;20116;-72